Search for airport 
image banner adimage banner adimage banner ad
image banner ad

KRIR - Flabob

Located in Riverside/Rubidoux/, United States

ICAO - RIR, IATA -

Data provided by Airmate  

General information

Coordinates: N33°59'20" W117°24'36"
Elevation is 767 feet MSL.
Magnetic variation is 13° East
View others Airports in California

Operational data

Special qualification required
Current time UTC:
Current local time:
Weather at : KRAL - Riverside Muni ( 5 km )
METAR: KRAL 221353Z 00000KT 10SM CLR 17/14 A2993 RMK AO2 SLP120 T01670139
View NOTAMs / SUP AIP / TFR affecting this airport [VIEW]
Communications frequencies: [VIEW]

Runways:

RWY identifierQFULength (ft)Width (ft)SurfaceLDA (ft)
0677°319050ASPH
24257°319050ASPH

Airport contact information

Address: Riverside/Rubidoux/ United States

Satellite view of KRIR